sensor_id;sensor_type;location;lat;lon;timestamp;temperature;humidity
71128;SHT30;59249;59.736;30.568;2022-08-21T00:02:23;18.49;63.02
71128;SHT30;59249;59.736;30.568;2022-08-21T00:04:53;18.42;63.34
71128;SHT30;59249;59.736;30.568;2022-08-21T00:07:25;18.40;63.52
71128;SHT30;59249;59.736;30.568;2022-08-21T00:09:54;18.36;63.51
71128;SHT30;59249;59.736;30.568;2022-08-21T00:12:23;18.39;63.79
71128;SHT30;59249;59.736;30.568;2022-08-21T00:14:53;18.36;63.89
71128;SHT30;59249;59.736;30.568;2022-08-21T00:17:26;18.40;63.90
71128;SHT30;59249;59.736;30.568;2022-08-21T00:19:54;18.40;64.07
71128;SHT30;59249;59.736;30.568;2022-08-21T00:22:24;18.43;63.96
71128;SHT30;59249;59.736;30.568;2022-08-21T00:24:55;18.49;63.88
71128;SHT30;59249;59.736;30.568;2022-08-21T00:27:24;18.44;63.84
71128;SHT30;59249;59.736;30.568;2022-08-21T00:29:53;18.48;63.96
71128;SHT30;59249;59.736;30.568;2022-08-21T00:32:26;18.51;63.76
71128;SHT30;59249;59.736;30.568;2022-08-21T00:34:55;18.47;63.76
71128;SHT30;59249;59.736;30.568;2022-08-21T00:37:24;18.43;63.90
71128;SHT30;59249;59.736;30.568;2022-08-21T00:39:56;18.43;63.92
71128;SHT30;59249;59.736;30.568;2022-08-21T00:42:28;18.35;64.02
71128;SHT30;59249;59.736;30.568;2022-08-21T00:44:57;18.31;64.17
71128;SHT30;59249;59.736;30.568;2022-08-21T00:47:28;18.30;64.27
71128;SHT30;59249;59.736;30.568;2022-08-21T00:49:57;18.30;64.41
71128;SHT30;59249;59.736;30.568;2022-08-21T00:52:30;18.22;64.55
71128;SHT30;59249;59.736;30.568;2022-08-21T00:55:01;18.15;64.65
71128;SHT30;59249;59.736;30.568;2022-08-21T00:57:36;18.14;64.69
71128;SHT30;59249;59.736;30.568;2022-08-21T01:00:14;18.09;64.97
71128;SHT30;59249;59.736;30.568;2022-08-21T01:02:46;18.03;65.37
71128;SHT30;59249;59.736;30.568;2022-08-21T01:05:15;17.98;65.43
71128;SHT30;59249;59.736;30.568;2022-08-21T01:07:45;17.96;65.54
71128;SHT30;59249;59.736;30.568;2022-08-21T01:10:14;17.93;65.37
71128;SHT30;59249;59.736;30.568;2022-08-21T01:12:52;17.85;65.64
71128;SHT30;59249;59.736;30.568;2022-08-21T01:15:25;17.82;65.65
71128;SHT30;59249;59.736;30.568;2022-08-21T01:17:57;17.76;66.14
71128;SHT30;59249;59.736;30.568;2022-08-21T01:20:27;17.73;66.21
71128;SHT30;59249;59.736;30.568;2022-08-21T01:23:02;17.67;66.38
71128;SHT30;59249;59.736;30.568;2022-08-21T01:25:33;17.67;66.58
71128;SHT30;59249;59.736;30.568;2022-08-21T01:28:11;17.58;66.96
71128;SHT30;59249;59.736;30.568;2022-08-21T01:30:43;17.58;66.72
71128;SHT30;59249;59.736;30.568;2022-08-21T01:33:12;17.57;66.72
71128;SHT30;59249;59.736;30.568;2022-08-21T01:35:41;17.56;66.92
71128;SHT30;59249;59.736;30.568;2022-08-21T01:38:11;17.54;66.94
71128;SHT30;59249;59.736;30.568;2022-08-21T01:40:40;17.50;67.32
71128;SHT30;59249;59.736;30.568;2022-08-21T01:43:09;17.51;67.47
71128;SHT30;59249;59.736;30.568;2022-08-21T01:45:38;17.45;67.47
71128;SHT30;59249;59.736;30.568;2022-08-21T01:48:07;17.42;67.57
71128;SHT30;59249;59.736;30.568;2022-08-21T01:50:36;17.40;67.67
71128;SHT30;59249;59.736;30.568;2022-08-21T01:53:04;17.32;68.15
71128;SHT30;59249;59.736;30.568;2022-08-21T01:55:35;17.32;68.38
71128;SHT30;59249;59.736;30.568;2022-08-21T01:58:04;17.31;68.10
71128;SHT30;59249;59.736;30.568;2022-08-21T02:00:33;17.32;68.20
71128;SHT30;59249;59.736;30.568;2022-08-21T02:03:02;17.28;68.39
71128;SHT30;59249;59.736;30.568;2022-08-21T02:05:30;17.28;68.28
71128;SHT30;59249;59.736;30.568;2022-08-21T02:08:01;17.22;68.41
71128;SHT30;59249;59.736;30.568;2022-08-21T02:10:32;17.23;68.55
71128;SHT30;59249;59.736;30.568;2022-08-21T02:13:03;17.19;68.67
71128;SHT30;59249;59.736;30.568;2022-08-21T02:15:32;17.19;68.76
71128;SHT30;59249;59.736;30.568;2022-08-21T02:18:02;17.16;68.94
71128;SHT30;59249;59.736;30.568;2022-08-21T02:20:33;17.11;69.06
71128;SHT30;59249;59.736;30.568;2022-08-21T02:23:04;17.14;69.05
71128;SHT30;59249;59.736;30.568;2022-08-21T02:25:33;17.10;69.07
71128;SHT30;59249;59.736;30.568;2022-08-21T02:28:08;17.11;69.21
71128;SHT30;59249;59.736;30.568;2022-08-21T02:30:42;17.10;69.42
71128;SHT30;59249;59.736;30.568;2022-08-21T02:33:13;17.07;69.57
71128;SHT30;59249;59.736;30.568;2022-08-21T02:35:45;17.03;69.57
71128;SHT30;59249;59.736;30.568;2022-08-21T02:38:18;17.04;69.67
71128;SHT30;59249;59.736;30.568;2022-08-21T02:40:50;17.02;69.73
71128;SHT30;59249;59.736;30.568;2022-08-21T02:43:23;17.05;69.92
71128;SHT30;59249;59.736;30.568;2022-08-21T02:45:53;17.01;70.03
71128;SHT30;59249;59.736;30.568;2022-08-21T02:48:25;17.05;70.48
71128;SHT30;59249;59.736;30.568;2022-08-21T02:50:59;17.02;70.46
71128;SHT30;59249;59.736;30.568;2022-08-21T02:53:29;17.07;70.33
71128;SHT30;59249;59.736;30.568;2022-08-21T02:56:01;17.08;70.39
71128;SHT30;59249;59.736;30.568;2022-08-21T02:58:36;16.98;70.74
71128;SHT30;59249;59.736;30.568;2022-08-21T03:01:07;17.02;70.85
71128;SHT30;59249;59.736;30.568;2022-08-21T03:03:38;16.96;70.98
71128;SHT30;59249;59.736;30.568;2022-08-21T03:06:11;16.93;70.94
71128;SHT30;59249;59.736;30.568;2022-08-21T03:08:40;16.96;70.97
71128;SHT30;59249;59.736;30.568;2022-08-21T03:11:13;16.95;71.19
71128;SHT30;59249;59.736;30.568;2022-08-21T03:13:44;16.95;71.36
71128;SHT30;59249;59.736;30.568;2022-08-21T03:16:13;16.91;71.17
71128;SHT30;59249;59.736;30.568;2022-08-21T03:18:42;17.00;71.33
71128;SHT30;59249;59.736;30.568;2022-08-21T03:21:11;17.00;71.38
71128;SHT30;59249;59.736;30.568;2022-08-21T03:23:41;17.00;71.66
71128;SHT30;59249;59.736;30.568;2022-08-21T03:26:10;17.00;72.05
71128;SHT30;59249;59.736;30.568;2022-08-21T03:28:40;17.04;71.89
71128;SHT30;59249;59.736;30.568;2022-08-21T03:31:11;17.04;72.17
71128;SHT30;59249;59.736;30.568;2022-08-21T03:33:39;17.08;72.21
71128;SHT30;59249;59.736;30.568;2022-08-21T03:36:09;17.07;72.47
71128;SHT30;59249;59.736;30.568;2022-08-21T03:38:39;17.16;72.52
71128;SHT30;59249;59.736;30.568;2022-08-21T03:41:08;17.20;72.55
71128;SHT30;59249;59.736;30.568;2022-08-21T03:43:38;17.20;72.52
71128;SHT30;59249;59.736;30.568;2022-08-21T03:46:07;17.30;72.74
71128;SHT30;59249;59.736;30.568;2022-08-21T03:48:37;17.32;72.54
71128;SHT30;59249;59.736;30.568;2022-08-21T03:51:07;17.37;72.51
71128;SHT30;59249;59.736;30.568;2022-08-21T03:53:36;17.39;72.43
71128;SHT30;59249;59.736;30.568;2022-08-21T03:56:06;17.42;72.50
71128;SHT30;59249;59.736;30.568;2022-08-21T03:58:35;17.47;72.31
71128;SHT30;59249;59.736;30.568;2022-08-21T04:01:05;17.47;72.36
71128;SHT30;59249;59.736;30.568;2022-08-21T04:03:37;17.37;72.74
71128;SHT30;59249;59.736;30.568;2022-08-21T04:06:07;17.40;72.77
71128;SHT30;59249;59.736;30.568;2022-08-21T04:08:36;17.45;72.58
71128;SHT30;59249;59.736;30.568;2022-08-21T04:11:05;17.51;72.74
71128;SHT30;59249;59.736;30.568;2022-08-21T04:13:34;17.58;72.54
71128;SHT30;59249;59.736;30.568;2022-08-21T04:16:11;17.63;72.34
71128;SHT30;59249;59.736;30.568;2022-08-21T04:18:41;17.70;72.56
71128;SHT30;59249;59.736;30.568;2022-08-21T04:21:11;17.72;72.66
71128;SHT30;59249;59.736;30.568;2022-08-21T04:23:41;17.69;72.93
71128;SHT30;59249;59.736;30.568;2022-08-21T04:26:10;17.67;73.05
71128;SHT30;59249;59.736;30.568;2022-08-21T04:28:38;17.67;73.09
71128;SHT30;59249;59.736;30.568;2022-08-21T04:31:08;17.75;72.97
71128;SHT30;59249;59.736;30.568;2022-08-21T04:33:37;17.79;72.86
71128;SHT30;59249;59.736;30.568;2022-08-21T04:36:08;17.86;72.63
71128;SHT30;59249;59.736;30.568;2022-08-21T04:38:37;17.82;72.73
71128;SHT30;59249;59.736;30.568;2022-08-21T04:41:11;17.91;72.66
71128;SHT30;59249;59.736;30.568;2022-08-21T04:43:40;17.94;72.61
71128;SHT30;59249;59.736;30.568;2022-08-21T04:46:09;17.91;73.13
71128;SHT30;59249;59.736;30.568;2022-08-21T04:48:40;17.89;73.20
71128;SHT30;59249;59.736;30.568;2022-08-21T04:51:15;17.93;73.16
71128;SHT30;59249;59.736;30.568;2022-08-21T04:53:50;17.90;73.11
71128;SHT30;59249;59.736;30.568;2022-08-21T04:56:24;17.93;73.32
71128;SHT30;59249;59.736;30.568;2022-08-21T04:58:58;17.91;73.64
71128;SHT30;59249;59.736;30.568;2022-08-21T05:01:34;17.95;73.84
71128;SHT30;59249;59.736;30.568;2022-08-21T05:04:08;17.94;73.67
71128;SHT30;59249;59.736;30.568;2022-08-21T05:06:43;17.98;73.94
71128;SHT30;59249;59.736;30.568;2022-08-21T05:09:16;17.94;74.09
71128;SHT30;59249;59.736;30.568;2022-08-21T05:11:46;17.94;74.08
71128;SHT30;59249;59.736;30.568;2022-08-21T05:14:16;17.95;74.28
71128;SHT30;59249;59.736;30.568;2022-08-21T05:16:45;17.95;74.25
71128;SHT30;59249;59.736;30.568;2022-08-21T05:19:14;17.94;74.40
71128;SHT30;59249;59.736;30.568;2022-08-21T05:21:46;17.93;74.74
71128;SHT30;59249;59.736;30.568;2022-08-21T05:24:16;17.98;74.75
71128;SHT30;59249;59.736;30.568;2022-08-21T05:26:45;18.05;74.54
71128;SHT30;59249;59.736;30.568;2022-08-21T05:29:16;18.09;74.51
71128;SHT30;59249;59.736;30.568;2022-08-21T05:31:46;18.23;74.23
71128;SHT30;59249;59.736;30.568;2022-08-21T05:34:19;18.27;74.19
71128;SHT30;59249;59.736;30.568;2022-08-21T05:36:50;18.44;73.96
71128;SHT30;59249;59.736;30.568;2022-08-21T05:39:19;18.52;73.59
71128;SHT30;59249;59.736;30.568;2022-08-21T05:41:47;18.54;73.33
71128;SHT30;59249;59.736;30.568;2022-08-21T05:44:16;18.64;73.31
71128;SHT30;59249;59.736;30.568;2022-08-21T05:46:46;18.64;73.20
71128;SHT30;59249;59.736;30.568;2022-08-21T05:49:15;18.75;72.71
71128;SHT30;59249;59.736;30.568;2022-08-21T05:51:44;18.84;72.71
71128;SHT30;59249;59.736;30.568;2022-08-21T05:54:14;18.82;72.71
71128;SHT30;59249;59.736;30.568;2022-08-21T05:56:44;18.83;72.49
71128;SHT30;59249;59.736;30.568;2022-08-21T05:59:12;18.84;72.57
71128;SHT30;59249;59.736;30.568;2022-08-21T06:01:41;18.86;72.85
71128;SHT30;59249;59.736;30.568;2022-08-21T06:04:11;18.96;72.46
71128;SHT30;59249;59.736;30.568;2022-08-21T06:06:40;19.12;71.93
71128;SHT30;59249;59.736;30.568;2022-08-21T06:09:09;19.35;71.62
71128;SHT30;59249;59.736;30.568;2022-08-21T06:11:39;19.38;70.82
71128;SHT30;59249;59.736;30.568;2022-08-21T06:14:08;19.40;70.49
71128;SHT30;59249;59.736;30.568;2022-08-21T06:16:36;19.40;70.53
71128;SHT30;59249;59.736;30.568;2022-08-21T06:19:05;19.49;70.41
71128;SHT30;59249;59.736;30.568;2022-08-21T06:21:34;19.61;70.38
71128;SHT30;59249;59.736;30.568;2022-08-21T06:24:04;19.74;69.99
71128;SHT30;59249;59.736;30.568;2022-08-21T06:26:34;19.93;69.78
71128;SHT30;59249;59.736;30.568;2022-08-21T06:29:04;20.01;69.99
71128;SHT30;59249;59.736;30.568;2022-08-21T06:31:33;19.92;69.89
71128;SHT30;59249;59.736;30.568;2022-08-21T06:34:04;19.94;69.70
71128;SHT30;59249;59.736;30.568;2022-08-21T06:36:32;20.08;69.81
71128;SHT30;59249;59.736;30.568;2022-08-21T06:39:01;20.17;69.53
71128;SHT30;59249;59.736;30.568;2022-08-21T06:41:51;20.20;69.35
71128;SHT30;59249;59.736;30.568;2022-08-21T06:44:29;20.10;69.31
71128;SHT30;59249;59.736;30.568;2022-08-21T06:46:59;20.07;69.49
71128;SHT30;59249;59.736;30.568;2022-08-21T06:49:28;20.01;69.52
71128;SHT30;59249;59.736;30.568;2022-08-21T06:51:56;20.00;69.64
71128;SHT30;59249;59.736;30.568;2022-08-21T06:54:25;19.97;69.34
71128;SHT30;59249;59.736;30.568;2022-08-21T06:56:54;19.87;70.01
71128;SHT30;59249;59.736;30.568;2022-08-21T06:59:23;19.84;70.28
71128;SHT30;59249;59.736;30.568;2022-08-21T07:01:53;19.88;70.56
71128;SHT30;59249;59.736;30.568;2022-08-21T07:04:22;19.99;70.58
71128;SHT30;59249;59.736;30.568;2022-08-21T07:06:50;20.04;70.00
71128;SHT30;59249;59.736;30.568;2022-08-21T07:09:19;20.10;69.94
71128;SHT30;59249;59.736;30.568;2022-08-21T07:11:55;20.06;69.88
71128;SHT30;59249;59.736;30.568;2022-08-21T07:14:25;20.17;69.61
71128;SHT30;59249;59.736;30.568;2022-08-21T07:16:55;20.07;69.87
71128;SHT30;59249;59.736;30.568;2022-08-21T07:19:24;20.12;69.64
71128;SHT30;59249;59.736;30.568;2022-08-21T07:21:58;20.24;69.43
71128;SHT30;59249;59.736;30.568;2022-08-21T07:24:28;20.30;69.31
71128;SHT30;59249;59.736;30.568;2022-08-21T07:26:57;20.52;69.11
71128;SHT30;59249;59.736;30.568;2022-08-21T07:29:26;20.52;68.71
71128;SHT30;59249;59.736;30.568;2022-08-21T07:31:56;20.69;68.24
71128;SHT30;59249;59.736;30.568;2022-08-21T07:34:25;20.73;68.15
71128;SHT30;59249;59.736;30.568;2022-08-21T07:36:54;20.76;67.63
71128;SHT30;59249;59.736;30.568;2022-08-21T07:39:24;20.69;67.86
71128;SHT30;59249;59.736;30.568;2022-08-21T07:41:53;20.66;67.78
71128;SHT30;59249;59.736;30.568;2022-08-21T07:44:22;20.55;68.06
71128;SHT30;59249;59.736;30.568;2022-08-21T07:46:51;20.58;68.40
71128;SHT30;59249;59.736;30.568;2022-08-21T07:49:21;20.68;68.17
71128;SHT30;59249;59.736;30.568;2022-08-21T07:51:50;20.77;67.94
71128;SHT30;59249;59.736;30.568;2022-08-21T07:54:19;20.96;67.54
71128;SHT30;59249;59.736;30.568;2022-08-21T07:57:00;21.16;67.17
71128;SHT30;59249;59.736;30.568;2022-08-21T07:59:28;21.19;66.92
71128;SHT30;59249;59.736;30.568;2022-08-21T08:01:57;21.28;66.79
71128;SHT30;59249;59.736;30.568;2022-08-21T08:04:28;21.35;66.53
71128;SHT30;59249;59.736;30.568;2022-08-21T08:06:56;21.39;66.59
71128;SHT30;59249;59.736;30.568;2022-08-21T08:09:25;21.35;66.51
71128;SHT30;59249;59.736;30.568;2022-08-21T08:11:54;21.46;66.87
71128;SHT30;59249;59.736;30.568;2022-08-21T08:14:23;21.62;66.43
71128;SHT30;59249;59.736;30.568;2022-08-21T08:16:57;21.51;66.33
71128;SHT30;59249;59.736;30.568;2022-08-21T08:19:27;21.39;66.74
71128;SHT30;59249;59.736;30.568;2022-08-21T08:21:56;21.41;66.89
71128;SHT30;59249;59.736;30.568;2022-08-21T08:24:25;21.37;66.68
71128;SHT30;59249;59.736;30.568;2022-08-21T08:26:54;21.22;67.46
71128;SHT30;59249;59.736;30.568;2022-08-21T08:29:24;21.16;67.32
71128;SHT30;59249;59.736;30.568;2022-08-21T08:31:54;21.16;67.21
71128;SHT30;59249;59.736;30.568;2022-08-21T08:34:22;21.27;67.25
71128;SHT30;59249;59.736;30.568;2022-08-21T08:36:53;21.19;66.96
71128;SHT30;59249;59.736;30.568;2022-08-21T08:39:25;21.33;67.35
71128;SHT30;59249;59.736;30.568;2022-08-21T08:42:05;21.41;67.06
71128;SHT30;59249;59.736;30.568;2022-08-21T08:44:58;21.49;66.91
71128;SHT30;59249;59.736;30.568;2022-08-21T08:47:32;21.61;66.96
71128;SHT30;59249;59.736;30.568;2022-08-21T08:50:08;21.74;66.68
71128;SHT30;59249;59.736;30.568;2022-08-21T08:52:48;21.85;66.67
71128;SHT30;59249;59.736;30.568;2022-08-21T08:55:21;21.78;66.39
71128;SHT30;59249;59.736;30.568;2022-08-21T08:57:55;21.76;66.52
71128;SHT30;59249;59.736;30.568;2022-08-21T09:00:24;21.79;66.62
71128;SHT30;59249;59.736;30.568;2022-08-21T09:02:58;21.70;66.75
71128;SHT30;59249;59.736;30.568;2022-08-21T09:05:38;21.82;66.97
71128;SHT30;59249;59.736;30.568;2022-08-21T09:08:32;21.96;66.53
71128;SHT30;59249;59.736;30.568;2022-08-21T09:11:15;21.95;66.12
71128;SHT30;59249;59.736;30.568;2022-08-21T09:13:57;21.72;66.81
71128;SHT30;59249;59.736;30.568;2022-08-21T09:16:44;21.70;66.89
71128;SHT30;59249;59.736;30.568;2022-08-21T09:19:36;21.65;66.94
71128;SHT30;59249;59.736;30.568;2022-08-21T09:22:16;21.63;67.08
71128;SHT30;59249;59.736;30.568;2022-08-21T09:25:12;21.52;67.37
71128;SHT30;59249;59.736;30.568;2022-08-21T09:27:44;21.54;67.64
71128;SHT30;59249;59.736;30.568;2022-08-21T09:30:17;21.59;67.75
71128;SHT30;59249;59.736;30.568;2022-08-21T09:32:52;21.84;67.12
71128;SHT30;59249;59.736;30.568;2022-08-21T09:35:23;21.92;66.63
71128;SHT30;59249;59.736;30.568;2022-08-21T09:37:56;21.92;67.30
71128;SHT30;59249;59.736;30.568;2022-08-21T09:40:36;22.05;66.22
71128;SHT30;59249;59.736;30.568;2022-08-21T09:43:23;22.29;66.58
71128;SHT30;59249;59.736;30.568;2022-08-21T09:46:08;22.41;66.00
71128;SHT30;59249;59.736;30.568;2022-08-21T09:48:44;22.73;65.56
71128;SHT30;59249;59.736;30.568;2022-08-21T09:51:18;22.83;64.83
71128;SHT30;59249;59.736;30.568;2022-08-21T09:53:51;22.85;64.92
71128;SHT30;59249;59.736;30.568;2022-08-21T09:56:31;23.08;64.61
71128;SHT30;59249;59.736;30.568;2022-08-21T09:59:27;22.95;64.00
71128;SHT30;59249;59.736;30.568;2022-08-21T10:02:24;22.85;64.30
71128;SHT30;59249;59.736;30.568;2022-08-21T10:04:58;22.96;64.85
71128;SHT30;59249;59.736;30.568;2022-08-21T10:07:30;23.07;64.79
71128;SHT30;59249;59.736;30.568;2022-08-21T10:10:04;23.28;64.08
71128;SHT30;59249;59.736;30.568;2022-08-21T10:13:00;23.37;63.49
71128;SHT30;59249;59.736;30.568;2022-08-21T10:15:46;23.42;63.35
71128;SHT30;59249;59.736;30.568;2022-08-21T10:18:24;23.40;63.38
71128;SHT30;59249;59.736;30.568;2022-08-21T10:21:02;23.29;63.88
71128;SHT30;59249;59.736;30.568;2022-08-21T10:23:59;23.33;63.68
71128;SHT30;59249;59.736;30.568;2022-08-21T10:26:52;23.60;63.48
71128;SHT30;59249;59.736;30.568;2022-08-21T10:29:46;23.54;62.83
71128;SHT30;59249;59.736;30.568;2022-08-21T10:32:36;23.73;62.86
71128;SHT30;59249;59.736;30.568;2022-08-21T10:35:14;23.66;62.99
71128;SHT30;59249;59.736;30.568;2022-08-21T10:38:06;23.85;62.40
71128;SHT30;59249;59.736;30.568;2022-08-21T10:41:06;23.94;62.21
71128;SHT30;59249;59.736;30.568;2022-08-21T10:43:51;24.15;61.83
71128;SHT30;59249;59.736;30.568;2022-08-21T10:46:38;24.13;61.59
71128;SHT30;59249;59.736;30.568;2022-08-21T10:49:22;24.04;61.71
71128;SHT30;59249;59.736;30.568;2022-08-21T10:52:08;23.79;62.56
71128;SHT30;59249;59.736;30.568;2022-08-21T10:54:46;23.65;62.68
71128;SHT30;59249;59.736;30.568;2022-08-21T10:57:29;23.53;62.92
71128;SHT30;59249;59.736;30.568;2022-08-21T11:00:06;23.50;62.87
71128;SHT30;59249;59.736;30.568;2022-08-21T11:02:44;23.38;63.65
71128;SHT30;59249;59.736;30.568;2022-08-21T11:05:20;23.29;64.09
71128;SHT30;59249;59.736;30.568;2022-08-21T11:07:57;23.40;63.74
71128;SHT30;59249;59.736;30.568;2022-08-21T11:10:38;23.35;63.82
71128;SHT30;59249;59.736;30.568;2022-08-21T11:13:35;23.32;63.75
71128;SHT30;59249;59.736;30.568;2022-08-21T11:16:13;23.46;63.88
71128;SHT30;59249;59.736;30.568;2022-08-21T11:18:55;23.71;63.01
71128;SHT30;59249;59.736;30.568;2022-08-21T11:21:34;23.54;63.16
71128;SHT30;59249;59.736;30.568;2022-08-21T11:24:21;23.54;63.32
71128;SHT30;59249;59.736;30.568;2022-08-21T11:27:03;23.36;63.67
71128;SHT30;59249;59.736;30.568;2022-08-21T11:29:37;23.42;63.67
71128;SHT30;59249;59.736;30.568;2022-08-21T11:35:25;23.69;63.82
71128;SHT30;59249;59.736;30.568;2022-08-21T11:38:22;23.88;63.25
71128;SHT30;59249;59.736;30.568;2022-08-21T11:41:11;23.97;63.00
71128;SHT30;59249;59.736;30.568;2022-08-21T11:43:45;24.04;62.91
71128;SHT30;59249;59.736;30.568;2022-08-21T11:46:28;24.00;62.87
71128;SHT30;59249;59.736;30.568;2022-08-21T11:49:23;23.99;63.01
71128;SHT30;59249;59.736;30.568;2022-08-21T11:52:16;23.72;63.11
71128;SHT30;59249;59.736;30.568;2022-08-21T11:54:55;23.68;63.33
71128;SHT30;59249;59.736;30.568;2022-08-21T11:57:32;23.69;63.63
71128;SHT30;59249;59.736;30.568;2022-08-21T12:00:07;23.79;63.49
71128;SHT30;59249;59.736;30.568;2022-08-21T12:02:45;23.86;63.19
71128;SHT30;59249;59.736;30.568;2022-08-21T12:05:29;23.89;62.99
71128;SHT30;59249;59.736;30.568;2022-08-21T12:08:10;23.94;63.00
71128;SHT30;59249;59.736;30.568;2022-08-21T12:10:45;23.96;62.91
71128;SHT30;59249;59.736;30.568;2022-08-21T12:13:26;23.97;62.97
71128;SHT30;59249;59.736;30.568;2022-08-21T12:16:12;24.09;62.97
71128;SHT30;59249;59.736;30.568;2022-08-21T12:18:43;24.19;63.16
71128;SHT30;59249;59.736;30.568;2022-08-21T12:21:23;24.20;63.25
71128;SHT30;59249;59.736;30.568;2022-08-21T12:24:17;24.29;62.82
71128;SHT30;59249;59.736;30.568;2022-08-21T12:26:52;24.44;62.73
71128;SHT30;59249;59.736;30.568;2022-08-21T12:29:25;24.48;62.76
71128;SHT30;59249;59.736;30.568;2022-08-21T12:32:00;24.60;62.13
71128;SHT30;59249;59.736;30.568;2022-08-21T12:34:36;24.67;61.91
71128;SHT30;59249;59.736;30.568;2022-08-21T12:37:18;24.73;61.54
71128;SHT30;59249;59.736;30.568;2022-08-21T12:39:54;24.68;62.31
71128;SHT30;59249;59.736;30.568;2022-08-21T12:42:38;24.78;62.05
71128;SHT30;59249;59.736;30.568;2022-08-21T12:45:18;24.81;62.08
71128;SHT30;59249;59.736;30.568;2022-08-21T12:47:54;24.87;61.80
71128;SHT30;59249;59.736;30.568;2022-08-21T12:50:36;24.86;62.09
71128;SHT30;59249;59.736;30.568;2022-08-21T12:53:12;24.82;61.88
71128;SHT30;59249;59.736;30.568;2022-08-21T12:55:49;24.80;62.13
71128;SHT30;59249;59.736;30.568;2022-08-21T12:58:19;24.97;62.29
71128;SHT30;59249;59.736;30.568;2022-08-21T13:00:56;25.33;62.08
71128;SHT30;59249;59.736;30.568;2022-08-21T13:03:27;25.74;60.35
71128;SHT30;59249;59.736;30.568;2022-08-21T13:05:57;25.91;59.98
71128;SHT30;59249;59.736;30.568;2022-08-21T13:08:27;26.07;58.79
71128;SHT30;59249;59.736;30.568;2022-08-21T13:11:04;26.09;58.60
71128;SHT30;59249;59.736;30.568;2022-08-21T13:13:43;26.04;58.84
71128;SHT30;59249;59.736;30.568;2022-08-21T13:16:24;25.86;60.08
71128;SHT30;59249;59.736;30.568;2022-08-21T13:19:00;25.85;60.34
71128;SHT30;59249;59.736;30.568;2022-08-21T13:21:33;25.97;59.64
71128;SHT30;59249;59.736;30.568;2022-08-21T13:24:18;26.16;59.19
71128;SHT30;59249;59.736;30.568;2022-08-21T13:27:22;26.19;59.71
71128;SHT30;59249;59.736;30.568;2022-08-21T13:30:10;26.37;59.69
71128;SHT30;59249;59.736;30.568;2022-08-21T13:32:43;26.55;58.88
71128;SHT30;59249;59.736;30.568;2022-08-21T13:35:22;26.72;58.59
71128;SHT30;59249;59.736;30.568;2022-08-21T13:37:53;26.88;58.15
71128;SHT30;59249;59.736;30.568;2022-08-21T13:40:28;27.02;57.72
71128;SHT30;59249;59.736;30.568;2022-08-21T13:43:00;27.23;56.79
71128;SHT30;59249;59.736;30.568;2022-08-21T13:45:32;27.20;56.85
71128;SHT30;59249;59.736;30.568;2022-08-21T13:48:03;27.13;56.38
71128;SHT30;59249;59.736;30.568;2022-08-21T13:50:35;27.21;56.19
71128;SHT30;59249;59.736;30.568;2022-08-21T13:53:20;27.27;55.98
71128;SHT30;59249;59.736;30.568;2022-08-21T13:55:50;27.26;55.65
71128;SHT30;59249;59.736;30.568;2022-08-21T13:58:31;27.24;55.83
71128;SHT30;59249;59.736;30.568;2022-08-21T14:01:01;27.31;56.23
71128;SHT30;59249;59.736;30.568;2022-08-21T14:03:42;27.27;55.99
71128;SHT30;59249;59.736;30.568;2022-08-21T14:06:17;26.84;56.97
71128;SHT30;59249;59.736;30.568;2022-08-21T14:08:52;26.71;57.26
71128;SHT30;59249;59.736;30.568;2022-08-21T14:11:23;26.67;57.60
71128;SHT30;59249;59.736;30.568;2022-08-21T14:14:03;26.62;57.54
71128;SHT30;59249;59.736;30.568;2022-08-21T14:16:53;26.60;58.08
71128;SHT30;59249;59.736;30.568;2022-08-21T14:19:26;26.69;57.93
71128;SHT30;59249;59.736;30.568;2022-08-21T14:21:56;26.82;57.72
71128;SHT30;59249;59.736;30.568;2022-08-21T14:24:28;26.92;57.91
71128;SHT30;59249;59.736;30.568;2022-08-21T14:27:06;27.04;57.60
71128;SHT30;59249;59.736;30.568;2022-08-21T14:29:40;26.94;57.27
71128;SHT30;59249;59.736;30.568;2022-08-21T14:32:15;26.88;56.90
71128;SHT30;59249;59.736;30.568;2022-08-21T14:34:51;26.79;57.30
71128;SHT30;59249;59.736;30.568;2022-08-21T14:37:21;26.87;56.43
71128;SHT30;59249;59.736;30.568;2022-08-21T14:39:50;26.87;55.99
71128;SHT30;59249;59.736;30.568;2022-08-21T14:42:20;27.02;55.84
71128;SHT30;59249;59.736;30.568;2022-08-21T14:44:59;27.18;55.50
71128;SHT30;59249;59.736;30.568;2022-08-21T14:47:32;27.23;54.87
71128;SHT30;59249;59.736;30.568;2022-08-21T14:50:01;27.16;54.62
71128;SHT30;59249;59.736;30.568;2022-08-21T14:52:30;27.20;54.54
71128;SHT30;59249;59.736;30.568;2022-08-21T14:55:00;27.40;53.54
71128;SHT30;59249;59.736;30.568;2022-08-21T14:57:32;27.24;54.22
71128;SHT30;59249;59.736;30.568;2022-08-21T15:00:05;27.33;54.31
71128;SHT30;59249;59.736;30.568;2022-08-21T15:02:37;27.33;54.53
71128;SHT30;59249;59.736;30.568;2022-08-21T15:05:07;27.50;53.76
71128;SHT30;59249;59.736;30.568;2022-08-21T15:07:36;27.56;53.69
71128;SHT30;59249;59.736;30.568;2022-08-21T15:10:07;27.39;53.76
71128;SHT30;59249;59.736;30.568;2022-08-21T15:12:37;27.04;54.40
71128;SHT30;59249;59.736;30.568;2022-08-21T15:15:09;26.80;54.82
71128;SHT30;59249;59.736;30.568;2022-08-21T15:17:38;26.61;55.65
71128;SHT30;59249;59.736;30.568;2022-08-21T15:20:14;26.48;55.56
71128;SHT30;59249;59.736;30.568;2022-08-21T15:22:45;26.51;55.78
71128;SHT30;59249;59.736;30.568;2022-08-21T15:25:16;26.64;55.85
71128;SHT30;59249;59.736;30.568;2022-08-21T15:27:46;26.91;55.59
71128;SHT30;59249;59.736;30.568;2022-08-21T15:30:17;27.18;55.42
71128;SHT30;59249;59.736;30.568;2022-08-21T15:32:48;27.43;54.22
71128;SHT30;59249;59.736;30.568;2022-08-21T15:35:17;27.61;53.71
71128;SHT30;59249;59.736;30.568;2022-08-21T15:37:47;27.81;53.95
71128;SHT30;59249;59.736;30.568;2022-08-21T15:40:17;27.96;53.63
71128;SHT30;59249;59.736;30.568;2022-08-21T15:42:46;28.21;53.59
71128;SHT30;59249;59.736;30.568;2022-08-21T15:45:20;28.27;53.64
71128;SHT30;59249;59.736;30.568;2022-08-21T15:47:50;28.50;53.07
71128;SHT30;59249;59.736;30.568;2022-08-21T15:50:21;28.93;52.52
71128;SHT30;59249;59.736;30.568;2022-08-21T15:52:50;29.12;52.42
71128;SHT30;59249;59.736;30.568;2022-08-21T15:55:21;29.26;52.37
71128;SHT30;59249;59.736;30.568;2022-08-21T15:57:53;29.26;51.85
71128;SHT30;59249;59.736;30.568;2022-08-21T16:00:27;29.34;51.72